sensor_id;sensor_type;location;lat;lon;timestamp;P1;durP1;ratioP1;P2;durP2;ratioP2
32196;SDS011;18697;42.770;23.400;2023-06-10T00:00:48;8.52;;;4.15;;
32196;SDS011;18697;42.770;23.400;2023-06-10T00:03:15;7.10;;;4.85;;
32196;SDS011;18697;42.770;23.400;2023-06-10T00:05:41;7.85;;;5.00;;
32196;SDS011;18697;42.770;23.400;2023-06-10T00:08:06;12.32;;;4.95;;
32196;SDS011;18697;42.770;23.400;2023-06-10T00:10:35;5.30;;;3.97;;
32196;SDS011;18697;42.770;23.400;2023-06-10T00:13:02;9.90;;;5.55;;
32196;SDS011;18697;42.770;23.400;2023-06-10T00:15:29;7.63;;;5.78;;
32196;SDS011;18697;42.770;23.400;2023-06-10T00:17:54;9.10;;;5.13;;
32196;SDS011;18697;42.770;23.400;2023-06-10T00:20:20;6.43;;;4.45;;
32196;SDS011;18697;42.770;23.400;2023-06-10T00:22:48;6.07;;;4.65;;
32196;SDS011;18697;42.770;23.400;2023-06-10T00:25:14;7.57;;;4.35;;
32196;SDS011;18697;42.770;23.400;2023-06-10T00:27:40;10.15;;;4.20;;
32196;SDS011;18697;42.770;23.400;2023-06-10T00:30:05;8.65;;;4.60;;
32196;SDS011;18697;42.770;23.400;2023-06-10T00:32:35;8.50;;;5.90;;
32196;SDS011;18697;42.770;23.400;2023-06-10T00:35:01;8.18;;;5.65;;
32196;SDS011;18697;42.770;23.400;2023-06-10T00:37:27;8.40;;;5.28;;
32196;SDS011;18697;42.770;23.400;2023-06-10T00:39:54;9.07;;;6.80;;
32196;SDS011;18697;42.770;23.400;2023-06-10T00:42:19;14.10;;;6.93;;
32196;SDS011;18697;42.770;23.400;2023-06-10T00:44:47;8.20;;;6.32;;
32196;SDS011;18697;42.770;23.400;2023-06-10T00:47:12;11.27;;;5.43;;
32196;SDS011;18697;42.770;23.400;2023-06-10T00:49:38;15.77;;;5.43;;
32196;SDS011;18697;42.770;23.400;2023-06-10T00:52:04;10.75;;;4.30;;
32196;SDS011;18697;42.770;23.400;2023-06-10T00:54:31;6.95;;;4.20;;
32196;SDS011;18697;42.770;23.400;2023-06-10T00:57:00;6.97;;;3.83;;
32196;SDS011;18697;42.770;23.400;2023-06-10T00:59:27;3.90;;;3.50;;
32196;SDS011;18697;42.770;23.400;2023-06-10T01:01:53;6.35;;;3.42;;
32196;SDS011;18697;42.770;23.400;2023-06-10T01:04:20;5.47;;;3.95;;
32196;SDS011;18697;42.770;23.400;2023-06-10T01:12:34;9.90;;;3.88;;
32196;SDS011;18697;42.770;23.400;2023-06-10T01:15:00;4.97;;;3.80;;
32196;SDS011;18697;42.770;23.400;2023-06-10T01:17:27;5.45;;;3.53;;
32196;SDS011;18697;42.770;23.400;2023-06-10T01:19:54;5.50;;;3.35;;
32196;SDS011;18697;42.770;23.400;2023-06-10T01:22:20;4.57;;;3.33;;
32196;SDS011;18697;42.770;23.400;2023-06-10T01:24:47;5.47;;;4.10;;
32196;SDS011;18697;42.770;23.400;2023-06-10T01:27:15;6.95;;;3.20;;
32196;SDS011;18697;42.770;23.400;2023-06-10T01:29:45;4.00;;;3.42;;
32196;SDS011;18697;42.770;23.400;2023-06-10T01:32:23;5.45;;;3.60;;
32196;SDS011;18697;42.770;23.400;2023-06-10T01:35:02;8.45;;;3.83;;
32196;SDS011;18697;42.770;23.400;2023-06-10T01:37:30;11.55;;;4.00;;
32196;SDS011;18697;42.770;23.400;2023-06-10T01:39:57;6.35;;;3.28;;
32196;SDS011;18697;42.770;23.400;2023-06-10T01:42:24;12.90;;;3.80;;
32196;SDS011;18697;42.770;23.400;2023-06-10T01:44:51;8.48;;;3.53;;
32196;SDS011;18697;42.770;23.400;2023-06-10T01:47:16;7.45;;;3.90;;
32196;SDS011;18697;42.770;23.400;2023-06-10T01:49:42;8.93;;;3.55;;
32196;SDS011;18697;42.770;23.400;2023-06-10T01:52:08;5.57;;;3.80;;
32196;SDS011;18697;42.770;23.400;2023-06-10T01:54:33;12.65;;;5.00;;
32196;SDS011;18697;42.770;23.400;2023-06-10T01:57:01;8.65;;;4.93;;
32196;SDS011;18697;42.770;23.400;2023-06-10T01:59:27;11.00;;;5.30;;
32196;SDS011;18697;42.770;23.400;2023-06-10T02:01:52;7.85;;;5.55;;
32196;SDS011;18697;42.770;23.400;2023-06-10T02:04:18;8.98;;;4.45;;
32196;SDS011;18697;42.770;23.400;2023-06-10T02:06:43;6.15;;;4.60;;
32196;SDS011;18697;42.770;23.400;2023-06-10T02:09:09;8.23;;;5.45;;
32196;SDS011;18697;42.770;23.400;2023-06-10T02:11:34;14.63;;;5.65;;
32196;SDS011;18697;42.770;23.400;2023-06-10T02:13:59;6.47;;;4.10;;
32196;SDS011;18697;42.770;23.400;2023-06-10T02:16:25;13.02;;;4.90;;
32196;SDS011;18697;42.770;23.400;2023-06-10T02:18:51;6.25;;;4.57;;
32196;SDS011;18697;42.770;23.400;2023-06-10T02:21:17;7.03;;;4.35;;
32196;SDS011;18697;42.770;23.400;2023-06-10T02:23:42;8.65;;;4.50;;
32196;SDS011;18697;42.770;23.400;2023-06-10T02:26:07;6.45;;;4.35;;
32196;SDS011;18697;42.770;23.400;2023-06-10T02:28:33;10.35;;;4.45;;
32196;SDS011;18697;42.770;23.400;2023-06-10T02:30:58;6.78;;;4.07;;
32196;SDS011;18697;42.770;23.400;2023-06-10T02:33:24;9.77;;;4.07;;
32196;SDS011;18697;42.770;23.400;2023-06-10T02:35:49;12.43;;;5.60;;
32196;SDS011;18697;42.770;23.400;2023-06-10T02:38:15;8.55;;;6.65;;
32196;SDS011;18697;42.770;23.400;2023-06-10T02:40:41;16.90;;;6.70;;
32196;SDS011;18697;42.770;23.400;2023-06-10T02:43:08;10.05;;;6.18;;
32196;SDS011;18697;42.770;23.400;2023-06-10T02:45:34;15.40;;;8.52;;
32196;SDS011;18697;42.770;23.400;2023-06-10T02:47:59;8.68;;;6.35;;
32196;SDS011;18697;42.770;23.400;2023-06-10T02:50:25;8.15;;;6.25;;
32196;SDS011;18697;42.770;23.400;2023-06-10T02:52:50;8.25;;;6.13;;
32196;SDS011;18697;42.770;23.400;2023-06-10T02:55:16;13.77;;;6.38;;
32196;SDS011;18697;42.770;23.400;2023-06-10T02:57:41;10.40;;;6.97;;
32196;SDS011;18697;42.770;23.400;2023-06-10T03:00:06;11.32;;;6.05;;
32196;SDS011;18697;42.770;23.400;2023-06-10T03:02:37;11.43;;;6.05;;
32196;SDS011;18697;42.770;23.400;2023-06-10T03:05:04;15.52;;;6.72;;
32196;SDS011;18697;42.770;23.400;2023-06-10T03:07:30;10.70;;;5.93;;
32196;SDS011;18697;42.770;23.400;2023-06-10T03:09:55;13.13;;;5.90;;
32196;SDS011;18697;42.770;23.400;2023-06-10T03:12:21;12.15;;;5.70;;
32196;SDS011;18697;42.770;23.400;2023-06-10T03:14:46;8.70;;;4.60;;
32196;SDS011;18697;42.770;23.400;2023-06-10T03:17:12;8.35;;;5.10;;
32196;SDS011;18697;42.770;23.400;2023-06-10T03:19:37;8.52;;;5.03;;
32196;SDS011;18697;42.770;23.400;2023-06-10T03:22:07;11.90;;;5.03;;
32196;SDS011;18697;42.770;23.400;2023-06-10T03:24:37;9.98;;;4.63;;
32196;SDS011;18697;42.770;23.400;2023-06-10T03:27:05;9.05;;;4.53;;
32196;SDS011;18697;42.770;23.400;2023-06-10T03:29:32;7.20;;;4.53;;
32196;SDS011;18697;42.770;23.400;2023-06-10T03:31:57;7.53;;;4.45;;
32196;SDS011;18697;42.770;23.400;2023-06-10T03:34:22;6.97;;;4.32;;
32196;SDS011;18697;42.770;23.400;2023-06-10T03:36:48;6.25;;;4.38;;
32196;SDS011;18697;42.770;23.400;2023-06-10T03:39:14;10.00;;;4.65;;
32196;SDS011;18697;42.770;23.400;2023-06-10T03:41:40;8.63;;;4.60;;
32196;SDS011;18697;42.770;23.400;2023-06-10T03:44:06;10.27;;;4.55;;
32196;SDS011;18697;42.770;23.400;2023-06-10T03:46:32;8.82;;;4.05;;
32196;SDS011;18697;42.770;23.400;2023-06-10T03:48:57;5.50;;;3.97;;
32196;SDS011;18697;42.770;23.400;2023-06-10T03:51:25;6.88;;;3.65;;
32196;SDS011;18697;42.770;23.400;2023-06-10T03:53:51;4.32;;;3.92;;
32196;SDS011;18697;42.770;23.400;2023-06-10T03:56:16;7.90;;;5.22;;
32196;SDS011;18697;42.770;23.400;2023-06-10T03:58:42;4.20;;;3.80;;
32196;SDS011;18697;42.770;23.400;2023-06-10T04:01:07;7.55;;;4.05;;
32196;SDS011;18697;42.770;23.400;2023-06-10T04:03:32;10.70;;;4.60;;
32196;SDS011;18697;42.770;23.400;2023-06-10T04:05:58;7.57;;;3.60;;
32196;SDS011;18697;42.770;23.400;2023-06-10T04:08:23;8.25;;;3.75;;
32196;SDS011;18697;42.770;23.400;2023-06-10T04:10:49;8.43;;;3.92;;
32196;SDS011;18697;42.770;23.400;2023-06-10T04:13:14;11.82;;;4.05;;
32196;SDS011;18697;42.770;23.400;2023-06-10T04:15:40;6.15;;;3.83;;
32196;SDS011;18697;42.770;23.400;2023-06-10T04:18:06;5.70;;;4.00;;
32196;SDS011;18697;42.770;23.400;2023-06-10T04:20:31;5.20;;;4.22;;
32196;SDS011;18697;42.770;23.400;2023-06-10T04:22:57;5.15;;;3.50;;
32196;SDS011;18697;42.770;23.400;2023-06-10T04:25:22;4.00;;;3.58;;
32196;SDS011;18697;42.770;23.400;2023-06-10T04:27:49;4.43;;;3.53;;
32196;SDS011;18697;42.770;23.400;2023-06-10T04:30:15;5.72;;;4.03;;
32196;SDS011;18697;42.770;23.400;2023-06-10T04:32:41;5.07;;;3.70;;
32196;SDS011;18697;42.770;23.400;2023-06-10T04:35:07;4.93;;;3.75;;
32196;SDS011;18697;42.770;23.400;2023-06-10T04:37:33;4.88;;;3.90;;
32196;SDS011;18697;42.770;23.400;2023-06-10T04:39:58;6.68;;;3.72;;
32196;SDS011;18697;42.770;23.400;2023-06-10T04:42:24;9.00;;;4.25;;
32196;SDS011;18697;42.770;23.400;2023-06-10T04:44:49;7.80;;;4.78;;
32196;SDS011;18697;42.770;23.400;2023-06-10T04:47:15;4.55;;;3.90;;
32196;SDS011;18697;42.770;23.400;2023-06-10T04:49:42;4.25;;;3.47;;
32196;SDS011;18697;42.770;23.400;2023-06-10T04:52:07;10.00;;;4.10;;
32196;SDS011;18697;42.770;23.400;2023-06-10T04:54:33;3.97;;;3.45;;
32196;SDS011;18697;42.770;23.400;2023-06-10T04:56:58;4.07;;;3.63;;
32196;SDS011;18697;42.770;23.400;2023-06-10T04:59:25;5.85;;;4.57;;
32196;SDS011;18697;42.770;23.400;2023-06-10T05:01:51;4.65;;;4.25;;
32196;SDS011;18697;42.770;23.400;2023-06-10T05:04:16;8.40;;;6.03;;
32196;SDS011;18697;42.770;23.400;2023-06-10T05:06:42;7.25;;;5.88;;
32196;SDS011;18697;42.770;23.400;2023-06-10T05:09:07;14.13;;;6.03;;
32196;SDS011;18697;42.770;23.400;2023-06-10T05:11:32;7.97;;;6.40;;
32196;SDS011;18697;42.770;23.400;2023-06-10T05:13:58;8.88;;;6.88;;
32196;SDS011;18697;42.770;23.400;2023-06-10T05:16:23;12.10;;;8.23;;
32196;SDS011;18697;42.770;23.400;2023-06-10T05:18:48;9.18;;;7.40;;
32196;SDS011;18697;42.770;23.400;2023-06-10T05:21:15;12.48;;;7.63;;
32196;SDS011;18697;42.770;23.400;2023-06-10T05:23:41;12.35;;;7.75;;
32196;SDS011;18697;42.770;23.400;2023-06-10T05:26:06;16.02;;;9.07;;
32196;SDS011;18697;42.770;23.400;2023-06-10T05:28:32;9.70;;;6.97;;
32196;SDS011;18697;42.770;23.400;2023-06-10T05:30:57;13.00;;;8.02;;
32196;SDS011;18697;42.770;23.400;2023-06-10T05:33:23;11.40;;;8.20;;
32196;SDS011;18697;42.770;23.400;2023-06-10T05:35:48;17.52;;;9.65;;
32196;SDS011;18697;42.770;23.400;2023-06-10T05:38:14;16.02;;;9.23;;
32196;SDS011;18697;42.770;23.400;2023-06-10T05:40:39;14.82;;;9.70;;
32196;SDS011;18697;42.770;23.400;2023-06-10T05:43:05;17.13;;;10.50;;
32196;SDS011;18697;42.770;23.400;2023-06-10T05:45:30;14.52;;;10.32;;
32196;SDS011;18697;42.770;23.400;2023-06-10T05:47:55;13.30;;;8.38;;
32196;SDS011;18697;42.770;23.400;2023-06-10T05:50:24;13.07;;;8.32;;
32196;SDS011;18697;42.770;23.400;2023-06-10T05:52:49;10.13;;;6.43;;
32196;SDS011;18697;42.770;23.400;2023-06-10T05:55:17;10.15;;;6.07;;
32196;SDS011;18697;42.770;23.400;2023-06-10T05:57:42;10.45;;;6.63;;
32196;SDS011;18697;42.770;23.400;2023-06-10T06:00:08;10.80;;;7.97;;
32196;SDS011;18697;42.770;23.400;2023-06-10T06:02:34;13.48;;;8.80;;
32196;SDS011;18697;42.770;23.400;2023-06-10T06:04:59;12.93;;;8.73;;
32196;SDS011;18697;42.770;23.400;2023-06-10T06:07:26;15.48;;;9.00;;
32196;SDS011;18697;42.770;23.400;2023-06-10T06:09:51;17.33;;;9.45;;
32196;SDS011;18697;42.770;23.400;2023-06-10T06:12:17;10.70;;;8.10;;
32196;SDS011;18697;42.770;23.400;2023-06-10T06:14:42;11.25;;;9.07;;
32196;SDS011;18697;42.770;23.400;2023-06-10T06:17:08;12.80;;;7.25;;
32196;SDS011;18697;42.770;23.400;2023-06-10T06:19:33;12.70;;;8.50;;
32196;SDS011;18697;42.770;23.400;2023-06-10T06:21:59;13.13;;;9.45;;
32196;SDS011;18697;42.770;23.400;2023-06-10T06:24:24;12.57;;;8.48;;
32196;SDS011;18697;42.770;23.400;2023-06-10T06:26:50;11.35;;;8.68;;
32196;SDS011;18697;42.770;23.400;2023-06-10T06:29:15;14.70;;;10.07;;
32196;SDS011;18697;42.770;23.400;2023-06-10T06:31:40;16.38;;;9.95;;
32196;SDS011;18697;42.770;23.400;2023-06-10T06:34:06;17.52;;;11.65;;
32196;SDS011;18697;42.770;23.400;2023-06-10T06:36:31;12.48;;;9.40;;
32196;SDS011;18697;42.770;23.400;2023-06-10T06:38:57;15.55;;;8.48;;
32196;SDS011;18697;42.770;23.400;2023-06-10T06:41:23;9.88;;;8.60;;
32196;SDS011;18697;42.770;23.400;2023-06-10T06:43:51;12.75;;;8.90;;
32196;SDS011;18697;42.770;23.400;2023-06-10T06:46:16;10.68;;;9.20;;
32196;SDS011;18697;42.770;23.400;2023-06-10T06:48:41;10.38;;;8.23;;
32196;SDS011;18697;42.770;23.400;2023-06-10T06:51:07;13.93;;;9.70;;
32196;SDS011;18697;42.770;23.400;2023-06-10T06:53:32;14.73;;;9.45;;
32196;SDS011;18697;42.770;23.400;2023-06-10T06:55:58;14.50;;;8.65;;
32196;SDS011;18697;42.770;23.400;2023-06-10T06:58:23;9.85;;;7.60;;
32196;SDS011;18697;42.770;23.400;2023-06-10T07:00:49;12.63;;;9.30;;
32196;SDS011;18697;42.770;23.400;2023-06-10T07:03:14;13.73;;;8.85;;
32196;SDS011;18697;42.770;23.400;2023-06-10T07:05:40;10.50;;;7.82;;
32196;SDS011;18697;42.770;23.400;2023-06-10T07:08:05;13.00;;;8.93;;
32196;SDS011;18697;42.770;23.400;2023-06-10T07:10:31;9.95;;;7.95;;
32196;SDS011;18697;42.770;23.400;2023-06-10T07:12:56;11.13;;;8.25;;
32196;SDS011;18697;42.770;23.400;2023-06-10T07:15:22;9.77;;;8.35;;
32196;SDS011;18697;42.770;23.400;2023-06-10T07:17:47;9.10;;;7.07;;
32196;SDS011;18697;42.770;23.400;2023-06-10T07:20:12;11.77;;;6.40;;
32196;SDS011;18697;42.770;23.400;2023-06-10T07:22:39;7.20;;;5.82;;
32196;SDS011;18697;42.770;23.400;2023-06-10T07:25:06;7.93;;;5.70;;
32196;SDS011;18697;42.770;23.400;2023-06-10T07:27:31;14.85;;;5.47;;
32196;SDS011;18697;42.770;23.400;2023-06-10T07:29:57;9.13;;;6.82;;
32196;SDS011;18697;42.770;23.400;2023-06-10T07:32:22;11.27;;;5.57;;
32196;SDS011;18697;42.770;23.400;2023-06-10T07:34:49;16.30;;;5.25;;
32196;SDS011;18697;42.770;23.400;2023-06-10T07:37:15;8.48;;;5.43;;
32196;SDS011;18697;42.770;23.400;2023-06-10T07:39:40;7.82;;;4.80;;
32196;SDS011;18697;42.770;23.400;2023-06-10T07:42:07;10.38;;;4.65;;
32196;SDS011;18697;42.770;23.400;2023-06-10T07:44:32;4.70;;;4.18;;
32196;SDS011;18697;42.770;23.400;2023-06-10T07:46:58;8.48;;;4.95;;
32196;SDS011;18697;42.770;23.400;2023-06-10T07:49:23;5.45;;;4.68;;
32196;SDS011;18697;42.770;23.400;2023-06-10T07:51:49;9.90;;;5.45;;
32196;SDS011;18697;42.770;23.400;2023-06-10T07:54:15;11.20;;;5.20;;
32196;SDS011;18697;42.770;23.400;2023-06-10T07:56:41;9.50;;;4.03;;
32196;SDS011;18697;42.770;23.400;2023-06-10T07:59:06;5.53;;;4.50;;
32196;SDS011;18697;42.770;23.400;2023-06-10T08:01:32;7.65;;;4.15;;
32196;SDS011;18697;42.770;23.400;2023-06-10T08:03:58;5.60;;;4.55;;
32196;SDS011;18697;42.770;23.400;2023-06-10T08:06:23;6.47;;;4.43;;
32196;SDS011;18697;42.770;23.400;2023-06-10T08:08:49;7.38;;;3.80;;
32196;SDS011;18697;42.770;23.400;2023-06-10T08:11:14;5.93;;;4.05;;
32196;SDS011;18697;42.770;23.400;2023-06-10T08:13:39;6.57;;;4.57;;
32196;SDS011;18697;42.770;23.400;2023-06-10T08:16:05;7.22;;;3.50;;
32196;SDS011;18697;42.770;23.400;2023-06-10T08:18:31;4.60;;;4.10;;
32196;SDS011;18697;42.770;23.400;2023-06-10T08:20:56;5.85;;;3.35;;
32196;SDS011;18697;42.770;23.400;2023-06-10T08:23:22;3.60;;;3.30;;
32196;SDS011;18697;42.770;23.400;2023-06-10T08:25:47;5.65;;;3.88;;
32196;SDS011;18697;42.770;23.400;2023-06-10T08:28:13;7.35;;;3.60;;
32196;SDS011;18697;42.770;23.400;2023-06-10T08:30:38;4.38;;;3.88;;
32196;SDS011;18697;42.770;23.400;2023-06-10T08:33:04;4.38;;;3.72;;
32196;SDS011;18697;42.770;23.400;2023-06-10T08:35:29;5.55;;;3.95;;
32196;SDS011;18697;42.770;23.400;2023-06-10T08:37:55;5.63;;;2.85;;
32196;SDS011;18697;42.770;23.400;2023-06-10T08:40:20;5.20;;;3.40;;
32196;SDS011;18697;42.770;23.400;2023-06-10T08:42:48;4.53;;;3.38;;
32196;SDS011;18697;42.770;23.400;2023-06-10T08:45:25;5.20;;;3.10;;
32196;SDS011;18697;42.770;23.400;2023-06-10T08:47:56;6.40;;;3.20;;
32196;SDS011;18697;42.770;23.400;2023-06-10T08:50:22;3.92;;;3.05;;
32196;SDS011;18697;42.770;23.400;2023-06-10T08:52:48;5.68;;;2.92;;
32196;SDS011;18697;42.770;23.400;2023-06-10T08:55:27;4.80;;;3.00;;
32196;SDS011;18697;42.770;23.400;2023-06-10T08:58:01;3.65;;;2.97;;
32196;SDS011;18697;42.770;23.400;2023-06-10T09:00:27;3.30;;;2.78;;
32196;SDS011;18697;42.770;23.400;2023-06-10T09:02:54;4.25;;;2.85;;
32196;SDS011;18697;42.770;23.400;2023-06-10T09:05:23;4.18;;;3.15;;
32196;SDS011;18697;42.770;23.400;2023-06-10T09:07:49;6.25;;;3.30;;
32196;SDS011;18697;42.770;23.400;2023-06-10T09:10:16;4.75;;;3.00;;
32196;SDS011;18697;42.770;23.400;2023-06-10T09:12:42;3.92;;;3.22;;
32196;SDS011;18697;42.770;23.400;2023-06-10T09:15:08;4.65;;;3.08;;
32196;SDS011;18697;42.770;23.400;2023-06-10T09:17:33;5.00;;;3.03;;
32196;SDS011;18697;42.770;23.400;2023-06-10T09:20:01;6.18;;;3.13;;
32196;SDS011;18697;42.770;23.400;2023-06-10T09:22:27;3.90;;;2.97;;
32196;SDS011;18697;42.770;23.400;2023-06-10T09:25:03;3.95;;;3.10;;
32196;SDS011;18697;42.770;23.400;2023-06-10T09:27:32;3.03;;;2.40;;
32196;SDS011;18697;42.770;23.400;2023-06-10T09:29:57;4.35;;;2.95;;
32196;SDS011;18697;42.770;23.400;2023-06-10T09:32:24;3.13;;;2.65;;
32196;SDS011;18697;42.770;23.400;2023-06-10T09:34:49;3.80;;;3.10;;
32196;SDS011;18697;42.770;23.400;2023-06-10T09:37:21;5.90;;;3.80;;
32196;SDS011;18697;42.770;23.400;2023-06-10T09:40:11;4.68;;;3.70;;
32196;SDS011;18697;42.770;23.400;2023-06-10T09:42:37;5.95;;;3.95;;
32196;SDS011;18697;42.770;23.400;2023-06-10T09:45:04;9.13;;;3.45;;
32196;SDS011;18697;42.770;23.400;2023-06-10T09:47:32;5.72;;;3.30;;
32196;SDS011;18697;42.770;23.400;2023-06-10T09:49:57;3.70;;;2.80;;
32196;SDS011;18697;42.770;23.400;2023-06-10T09:52:23;5.95;;;3.05;;
32196;SDS011;18697;42.770;23.400;2023-06-10T09:54:52;3.42;;;2.95;;
32196;SDS011;18697;42.770;23.400;2023-06-10T09:57:19;3.10;;;2.88;;
32196;SDS011;18697;42.770;23.400;2023-06-10T09:59:46;3.22;;;2.92;;
32196;SDS011;18697;42.770;23.400;2023-06-10T10:02:15;4.63;;;3.13;;
32196;SDS011;18697;42.770;23.400;2023-06-10T10:04:42;5.40;;;3.17;;
32196;SDS011;18697;42.770;23.400;2023-06-10T10:07:09;4.68;;;2.90;;
32196;SDS011;18697;42.770;23.400;2023-06-10T10:09:38;5.28;;;2.97;;
32196;SDS011;18697;42.770;23.400;2023-06-10T10:12:09;5.95;;;3.42;;
32196;SDS011;18697;42.770;23.400;2023-06-10T10:14:41;2.78;;;2.50;;
32196;SDS011;18697;42.770;23.400;2023-06-10T10:17:11;5.10;;;3.80;;
32196;SDS011;18697;42.770;23.400;2023-06-10T10:19:43;5.72;;;3.08;;
32196;SDS011;18697;42.770;23.400;2023-06-10T10:22:18;4.38;;;2.95;;
32196;SDS011;18697;42.770;23.400;2023-06-10T10:24:50;4.65;;;2.70;;
32196;SDS011;18697;42.770;23.400;2023-06-10T10:27:26;3.28;;;2.60;;
32196;SDS011;18697;42.770;23.400;2023-06-10T10:29:54;2.70;;;2.05;;
32196;SDS011;18697;42.770;23.400;2023-06-10T10:32:21;2.50;;;2.30;;
32196;SDS011;18697;42.770;23.400;2023-06-10T10:37:25;5.07;;;2.30;;
32196;SDS011;18697;42.770;23.400;2023-06-10T10:39:51;4.63;;;2.45;;
32196;SDS011;18697;42.770;23.400;2023-06-10T10:42:17;6.88;;;4.00;;
32196;SDS011;18697;42.770;23.400;2023-06-10T10:44:43;5.43;;;3.63;;
32196;SDS011;18697;42.770;23.400;2023-06-10T10:47:09;2.85;;;2.20;;
32196;SDS011;18697;42.770;23.400;2023-06-10T10:49:36;5.68;;;2.35;;
32196;SDS011;18697;42.770;23.400;2023-06-10T10:52:03;2.45;;;2.20;;
32196;SDS011;18697;42.770;23.400;2023-06-10T10:54:35;3.95;;;2.42;;
32196;SDS011;18697;42.770;23.400;2023-06-10T11:05:09;2.83;;;2.08;;
32196;SDS011;18697;42.770;23.400;2023-06-10T11:07:36;2.50;;;1.65;;
32196;SDS011;18697;42.770;23.400;2023-06-10T11:10:12;2.17;;;1.98;;
32196;SDS011;18697;42.770;23.400;2023-06-10T11:15:10;2.25;;;1.90;;
32196;SDS011;18697;42.770;23.400;2023-06-10T11:17:36;2.22;;;1.85;;
32196;SDS011;18697;42.770;23.400;2023-06-10T11:20:01;2.13;;;1.92;;
32196;SDS011;18697;42.770;23.400;2023-06-10T11:22:27;2.90;;;1.52;;
32196;SDS011;18697;42.770;23.400;2023-06-10T11:24:53;2.83;;;2.05;;
32196;SDS011;18697;42.770;23.400;2023-06-10T11:27:22;3.03;;;2.13;;
32196;SDS011;18697;42.770;23.400;2023-06-10T11:30:34;2.33;;;2.13;;
32196;SDS011;18697;42.770;23.400;2023-06-10T11:32:44;2.40;;;2.08;;
32196;SDS011;18697;42.770;23.400;2023-06-10T11:35:10;2.50;;;2.00;;
32196;SDS011;18697;42.770;23.400;2023-06-10T11:37:36;2.60;;;2.35;;
32196;SDS011;18697;42.770;23.400;2023-06-10T11:40:01;3.10;;;2.13;;
32196;SDS011;18697;42.770;23.400;2023-06-10T11:42:27;4.70;;;1.90;;
32196;SDS011;18697;42.770;23.400;2023-06-10T11:44:53;3.30;;;1.90;;
32196;SDS011;18697;42.770;23.400;2023-06-10T11:47:20;3.65;;;2.03;;
32196;SDS011;18697;42.770;23.400;2023-06-10T11:49:46;4.20;;;2.45;;
32196;SDS011;18697;42.770;23.400;2023-06-10T11:52:25;2.85;;;2.28;;
32196;SDS011;18697;42.770;23.400;2023-06-10T11:55:02;2.25;;;1.90;;
32196;SDS011;18697;42.770;23.400;2023-06-10T11:57:29;4.45;;;2.47;;
32196;SDS011;18697;42.770;23.400;2023-06-10T11:59:55;2.50;;;2.30;;
32196;SDS011;18697;42.770;23.400;2023-06-10T12:02:20;2.35;;;1.52;;
32196;SDS011;18697;42.770;23.400;2023-06-10T12:04:47;3.30;;;1.90;;
32196;SDS011;18697;42.770;23.400;2023-06-10T12:07:18;4.63;;;1.75;;
32196;SDS011;18697;42.770;23.400;2023-06-10T12:09:44;17.17;;;2.35;;
32196;SDS011;18697;42.770;23.400;2023-06-10T12:12:10;2.75;;;2.00;;
32196;SDS011;18697;42.770;23.400;2023-06-10T12:20:00;3.22;;;2.00;;
32196;SDS011;18697;42.770;23.400;2023-06-10T12:22:49;2.80;;;2.10;;
32196;SDS011;18697;42.770;23.400;2023-06-10T12:25:13;3.57;;;2.47;;
32196;SDS011;18697;42.770;23.400;2023-06-10T12:27:40;2.30;;;2.10;;
32196;SDS011;18697;42.770;23.400;2023-06-10T12:30:18;4.25;;;2.50;;
32196;SDS011;18697;42.770;23.400;2023-06-10T12:32:45;2.80;;;2.40;;
32196;SDS011;18697;42.770;23.400;2023-06-10T12:35:15;2.80;;;1.85;;
32196;SDS011;18697;42.770;23.400;2023-06-10T12:37:42;2.65;;;2.05;;
32196;SDS011;18697;42.770;23.400;2023-06-10T12:40:25;3.72;;;2.42;;
32196;SDS011;18697;42.770;23.400;2023-06-10T12:42:51;3.55;;;2.42;;
32196;SDS011;18697;42.770;23.400;2023-06-10T12:45:25;2.88;;;2.35;;
32196;SDS011;18697;42.770;23.400;2023-06-10T12:48:04;3.38;;;2.30;;
32196;SDS011;18697;42.770;23.400;2023-06-10T12:50:31;5.03;;;2.20;;
32196;SDS011;18697;42.770;23.400;2023-06-10T12:52:57;2.20;;;2.10;;
32196;SDS011;18697;42.770;23.400;2023-06-10T12:55:22;3.10;;;2.47;;
32196;SDS011;18697;42.770;23.400;2023-06-10T12:57:48;2.50;;;2.20;;
32196;SDS011;18697;42.770;23.400;2023-06-10T13:00:15;3.53;;;2.20;;
32196;SDS011;18697;42.770;23.400;2023-06-10T13:02:41;2.45;;;2.15;;
32196;SDS011;18697;42.770;23.400;2023-06-10T13:05:06;4.13;;;2.42;;
32196;SDS011;18697;42.770;23.400;2023-06-10T13:07:32;2.33;;;2.13;;
32196;SDS011;18697;42.770;23.400;2023-06-10T13:09:57;3.20;;;2.45;;
32196;SDS011;18697;42.770;23.400;2023-06-10T13:12:25;4.25;;;2.50;;
32196;SDS011;18697;42.770;23.400;2023-06-10T13:14:50;5.20;;;2.33;;
32196;SDS011;18697;42.770;23.400;2023-06-10T13:17:18;3.88;;;2.40;;
32196;SDS011;18697;42.770;23.400;2023-06-10T13:19:43;7.47;;;2.58;;
32196;SDS011;18697;42.770;23.400;2023-06-10T13:22:09;4.00;;;2.80;;
32196;SDS011;18697;42.770;23.400;2023-06-10T13:24:34;6.60;;;2.45;;
32196;SDS011;18697;42.770;23.400;2023-06-10T13:27:00;2.55;;;2.35;;
32196;SDS011;18697;42.770;23.400;2023-06-10T13:29:25;7.18;;;3.28;;
32196;SDS011;18697;42.770;23.400;2023-06-10T13:31:51;4.15;;;2.75;;
32196;SDS011;18697;42.770;23.400;2023-06-10T13:34:16;9.35;;;3.03;;
32196;SDS011;18697;42.770;23.400;2023-06-10T13:36:42;5.95;;;3.10;;
32196;SDS011;18697;42.770;23.400;2023-06-10T13:39:07;5.43;;;3.63;;
32196;SDS011;18697;42.770;23.400;2023-06-10T13:41:33;6.00;;;3.35;;
32196;SDS011;18697;42.770;23.400;2023-06-10T13:43:58;8.68;;;3.47;;
32196;SDS011;18697;42.770;23.400;2023-06-10T13:46:23;5.70;;;3.42;;
32196;SDS011;18697;42.770;23.400;2023-06-10T13:48:49;6.07;;;3.35;;
32196;SDS011;18697;42.770;23.400;2023-06-10T13:51:14;8.32;;;3.45;;
32196;SDS011;18697;42.770;23.400;2023-06-10T13:53:40;8.20;;;3.55;;
32196;SDS011;18697;42.770;23.400;2023-06-10T13:56:05;7.13;;;3.50;;
32196;SDS011;18697;42.770;23.400;2023-06-10T13:58:31;5.90;;;3.67;;
32196;SDS011;18697;42.770;23.400;2023-06-10T14:00:56;3.78;;;3.25;;
32196;SDS011;18697;42.770;23.400;2023-06-10T14:03:23;4.32;;;3.80;;
32196;SDS011;18697;42.770;23.400;2023-06-10T14:05:49;7.28;;;3.55;;
32196;SDS011;18697;42.770;23.400;2023-06-10T14:08:14;3.72;;;3.22;;
32196;SDS011;18697;42.770;23.400;2023-06-10T14:10:39;3.88;;;3.47;;
32196;SDS011;18697;42.770;23.400;2023-06-10T14:13:05;7.60;;;4.82;;
32196;SDS011;18697;42.770;23.400;2023-06-10T14:15:31;5.57;;;3.42;;
32196;SDS011;18697;42.770;23.400;2023-06-10T14:17:57;59.20;;;34.55;;
32196;SDS011;18697;42.770;23.400;2023-06-10T14:20:22;23.83;;;14.82;;
32196;SDS011;18697;42.770;23.400;2023-06-10T14:22:50;5.60;;;4.75;;
32196;SDS011;18697;42.770;23.400;2023-06-10T14:25:15;25.10;;;15.63;;
32196;SDS011;18697;42.770;23.400;2023-06-10T14:27:41;10.80;;;7.80;;
32196;SDS011;18697;42.770;23.400;2023-06-10T14:30:07;27.80;;;14.73;;
32196;SDS011;18697;42.770;23.400;2023-06-10T14:32:32;15.13;;;5.13;;
32196;SDS011;18697;42.770;23.400;2023-06-10T14:34:58;25.25;;;16.35;;
32196;SDS011;18697;42.770;23.400;2023-06-10T14:37:23;7.55;;;4.82;;
32196;SDS011;18697;42.770;23.400;2023-06-10T14:39:49;9.05;;;4.07;;
32196;SDS011;18697;42.770;23.400;2023-06-10T14:42:14;18.55;;;10.32;;
32196;SDS011;18697;42.770;23.400;2023-06-10T14:44:40;31.77;;;14.98;;
32196;SDS011;18697;42.770;23.400;2023-06-10T14:47:05;8.90;;;4.57;;
32196;SDS011;18697;42.770;23.400;2023-06-10T14:49:31;5.25;;;3.53;;
32196;SDS011;18697;42.770;23.400;2023-06-10T14:51:56;6.78;;;3.70;;